Time;durP1;ratioP1;P1;durP2;ratioP2;P2;SDS_P1;SDS_P2;PMS_P1;PMS_P2;Temp;Humidity;BMP_temperature;BMP_pressure;BME280_temperature;BME280_humidity;BME280_pressure;Samples;Min_cycle;Max_cycle;Signal;HPM_P1;HPM_P2
2021/09/27 00:00:40;;;;;;;3.33;3.03;;;;;;;17.75;100.00;100663.19;5132349;27;20263;-74
2021/09/27 00:03:06;;;;;;;4.00;3.70;;;;;;;17.88;100.00;100677.75;5132299;27;20179;-74
2021/09/27 00:05:33;;;;;;;3.97;3.67;;;;;;;18.02;100.00;100699.44;5131786;27;20228;-74
2021/09/27 00:07:58;;;;;;;3.60;3.30;;;;;;;17.96;100.00;100674.00;5132180;27;20537;-74
2021/09/27 00:10:27;;;;;;;4.67;4.27;;;;;;;18.09;100.00;100685.81;5132164;27;20279;-74
2021/09/27 00:12:54;;;;;;;4.30;3.43;;;;;;;18.16;100.00;100682.41;5131909;27;20617;-74
2021/09/27 00:15:27;;;;;;;4.37;3.33;;;;;;;18.22;100.00;100689.25;5131824;27;20253;-74
2021/09/27 00:17:53;;;;;;;3.87;3.33;;;;;;;18.26;100.00;100696.50;5131880;27;20217;-74
2021/09/27 00:20:18;;;;;;;4.03;3.70;;;;;;;18.16;100.00;100694.25;5131819;27;20172;-74
2021/09/27 00:22:44;;;;;;;4.67;4.20;;;;;;;18.02;100.00;100702.19;5131855;27;20255;-74
2021/09/27 00:25:10;;;;;;;5.70;4.13;;;;;;;17.89;100.00;100700.66;5131671;27;20168;-74
2021/09/27 00:27:36;;;;;;;4.53;4.10;;;;;;;17.86;100.00;100693.88;5113417;27;20192;-74
2021/09/27 00:30:04;;;;;;;5.07;4.67;;;;;;;17.84;100.00;100699.78;5131816;27;20556;-74
2021/09/27 00:32:29;;;;;;;4.57;4.17;;;;;;;17.92;100.00;100699.94;5131692;27;20225;-74
2021/09/27 00:34:54;;;;;;;4.63;4.13;;;;;;;17.91;100.00;100667.94;5131701;27;20200;-74
2021/09/27 00:37:20;;;;;;;5.23;4.67;;;;;;;17.90;100.00;100680.94;5131634;27;20655;-74
2021/09/27 00:39:45;;;;;;;4.47;4.07;;;;;;;17.96;100.00;100687.03;5131710;27;20172;-74
2021/09/27 00:42:10;;;;;;;5.60;5.10;;;;;;;17.99;100.00;100697.38;5131693;28;20168;-74
2021/09/27 00:44:36;;;;;;;4.60;4.20;;;;;;;18.02;100.00;100693.91;5113286;28;20199;-74
2021/09/27 00:47:02;;;;;;;4.70;4.20;;;;;;;18.02;100.00;100696.66;5113102;28;20208;-74
2021/09/27 00:49:28;;;;;;;5.93;5.33;;;;;;;17.95;100.00;100690.97;5131427;28;20192;-74
2021/09/27 00:51:53;;;;;;;6.80;5.47;;;;;;;17.88;100.00;100707.34;5131454;27;20209;-74
2021/09/27 00:54:21;;;;;;;5.90;5.40;;;;;;;17.86;100.00;100709.66;5134676;27;20179;-74
2021/09/27 00:57:03;;;;;;;6.97;5.30;;;;;;;17.84;100.00;100708.06;5135755;27;20172;-74
2021/09/27 00:59:30;;;;;;;6.87;6.17;;;;;;;17.71;100.00;100702.94;5135826;27;20554;-74
2021/09/27 01:01:55;;;;;;;6.83;6.33;;;;;;;17.64;100.00;100709.03;5135544;27;20301;-74
2021/09/27 01:04:21;;;;;;;8.37;7.67;;;;;;;17.55;100.00;100711.16;5135257;27;20283;-74
2021/09/27 01:07:00;;;;;;;8.97;8.03;;;;;;;17.49;100.00;100715.31;5135807;27;20176;-74
2021/09/27 01:09:44;;;;;;;9.50;8.70;;;;;;;17.44;100.00;100710.84;5135484;27;20642;-74
2021/09/27 01:12:15;;;;;;;11.20;8.50;;;;;;;17.39;100.00;100711.13;5135433;27;20160;-74
2021/09/27 01:15:02;;;;;;;11.73;10.73;;;;;;;17.41;100.00;100725.38;5135262;27;20168;-73
2021/09/27 01:17:49;;;;;;;12.47;11.33;;;;;;;17.40;100.00;100709.16;5135664;27;20549;-74
2021/09/27 01:20:30;;;;;;;12.00;10.90;;;;;;;17.38;100.00;100692.94;5135416;27;20165;-74
2021/09/27 01:23:18;;;;;;;11.37;10.27;;;;;;;17.37;100.00;100729.19;5135271;27;20662;-74
2021/09/27 01:25:54;;;;;;;10.70;9.60;;;;;;;17.37;100.00;100729.19;5121621;27;20699;-74
2021/09/27 01:28:37;;;;;;;13.37;11.30;;;;;;;17.40;100.00;100726.53;5135151;27;20191;-73
2021/09/27 01:31:47;;;;;;;11.53;10.43;;;;;;;17.45;100.00;100728.22;5134991;27;20210;-74
2021/09/27 01:34:31;;;;;;;10.37;9.37;;;;;;;17.49;100.00;100723.59;5116500;27;20255;-74
2021/09/27 01:37:08;;;;;;;10.87;9.83;;;;;;;17.52;100.00;100728.44;5134953;27;20161;-74
2021/09/27 01:39:43;;;;;;;10.23;9.33;;;;;;;17.53;100.00;100721.78;5135092;27;20176;-74
2021/09/27 01:42:15;;;;;;;11.67;10.57;;;;;;;17.58;100.00;100732.56;5134964;27;20229;-74
2021/09/27 01:45:03;;;;;;;11.17;8.97;;;;;;;17.46;100.00;100730.66;5134648;27;20265;-74
2021/09/27 01:47:40;;;;;;;10.87;9.83;;;;;;;17.44;100.00;100738.47;5134774;27;20689;-74
2021/09/27 01:50:12;;;;;;;10.50;9.53;;;;;;;17.28;100.00;100742.34;5134821;27;20202;-74
2021/09/27 01:52:46;;;;;;;11.70;10.60;;;;;;;17.18;100.00;100729.81;5134666;27;20221;-74
2021/09/27 01:55:19;;;;;;;11.73;9.93;;;;;;;17.13;100.00;100727.28;5134528;27;20655;-74
2021/09/27 01:57:58;;;;;;;11.50;10.50;;;;;;;17.15;100.00;100741.56;5134713;27;20193;-74
2021/09/27 02:00:31;;;;;;;11.33;10.07;;;;;;;17.24;100.00;100725.66;5134586;27;20177;-74
2021/09/27 02:02:59;;;;;;;11.20;10.10;;;;;;;17.45;100.00;100736.53;5134565;27;20192;-74
2021/09/27 02:05:40;;;;;;;10.50;9.60;;;;;;;17.62;100.00;100729.88;5115554;27;20586;-74
2021/09/27 02:08:10;;;;;;;10.63;9.73;;;;;;;17.75;100.00;100732.28;5134264;27;20161;-74
2021/09/27 02:10:57;;;;;;;11.53;10.53;;;;;;;17.81;100.00;100730.09;5133979;27;20188;-74
2021/09/27 02:13:35;;;;;;;11.13;10.13;;;;;;;17.59;100.00;100731.41;5133960;27;20535;-74
2021/09/27 02:16:09;;;;;;;11.00;10.10;;;;;;;17.78;100.00;100739.06;5134014;27;20181;-74
2021/09/27 02:18:52;;;;;;;10.63;9.67;;;;;;;17.91;100.00;100735.06;5134215;27;20173;-74
2021/09/27 02:21:22;;;;;;;9.37;8.57;;;;;;;17.97;100.00;100744.75;5134115;27;20203;-74
2021/09/27 02:24:06;;;;;;;9.73;8.93;;;;;;;18.04;100.00;100766.22;5134115;27;20164;-74
2021/09/27 02:26:32;;;;;;;10.00;9.17;;;;;;;18.05;100.00;100749.28;5134215;27;20263;-74
2021/09/27 02:28:58;;;;;;;10.70;9.80;;;;;;;18.07;100.00;100760.78;5134138;27;20252;-74
2021/09/27 02:31:42;;;;;;;10.60;9.60;;;;;;;18.11;100.00;100750.66;5133615;27;20535;-75
2021/09/27 02:34:29;;;;;;;10.03;9.23;;;;;;;18.12;100.00;100785.44;5133505;27;20176;-74
2021/09/27 02:37:02;;;;;;;11.20;10.20;;;;;;;18.14;100.00;100772.06;5115154;27;20180;-74
2021/09/27 02:39:36;;;;;;;10.03;9.13;;;;;;;18.19;100.00;100784.81;5133739;27;20225;-74
2021/09/27 02:42:33;;;;;;;10.60;9.70;;;;;;;18.18;100.00;100780.44;5133946;27;20258;-74
2021/09/27 02:44:59;;;;;;;9.50;8.70;;;;;;;18.20;100.00;100789.19;5133287;27;20180;-74
2021/09/27 02:47:33;;;;;;;9.07;8.17;;;;;;;18.19;100.00;100789.53;5115214;27;20184;-75
2021/09/27 02:50:06;;;;;;;10.10;9.20;;;;;;;18.17;100.00;100789.09;5133380;27;20196;-74
2021/09/27 02:52:32;;;;;;;10.03;9.17;;;;;;;18.14;100.00;100788.66;5133308;27;20172;-74
2021/09/27 02:55:03;;;;;;;9.80;8.90;;;;;;;18.17;100.00;100781.59;5133084;27;20172;-74
2021/09/27 02:57:36;;;;;;;9.60;8.57;;;;;;;18.22;100.00;100775.00;5133314;27;20180;-74
2021/09/27 03:00:15;;;;;;;9.63;8.73;;;;;;;18.25;100.00;100794.47;5133228;27;20177;-74
2021/09/27 03:03:08;;;;;;;9.67;8.87;;;;;;;18.26;100.00;100801.63;5133102;27;20242;-75
2021/09/27 03:05:45;;;;;;;10.07;8.57;;;;;;;18.30;100.00;100782.34;5132850;27;20228;-74
2021/09/27 03:08:37;;;;;;;10.17;9.37;;;;;;;18.28;100.00;100785.47;5133166;27;20173;-74
2021/09/27 03:11:11;;;;;;;10.20;9.30;;;;;;;18.24;100.00;100786.53;5133039;27;20208;-74
2021/09/27 03:13:57;;;;;;;9.53;8.73;;;;;;;18.27;100.00;100780.28;5132872;27;20164;-74
2021/09/27 03:16:41;;;;;;;10.10;8.80;;;;;;;18.17;100.00;100780.81;5132406;27;20557;-74
2021/09/27 03:19:09;;;;;;;9.87;8.97;;;;;;;18.13;100.00;100775.19;5133207;27;20516;-74
2021/09/27 03:21:46;;;;;;;8.90;8.23;;;;;;;18.13;100.00;100769.66;5132761;27;20453;-74
2021/09/27 03:24:49;;;;;;;9.20;8.40;;;;;;;18.09;100.00;100755.75;5132751;27;20179;-74
2021/09/27 03:27:20;;;;;;;8.97;8.27;;;;;;;18.02;100.00;100747.25;5114315;27;20198;-74
2021/09/27 03:30:15;;;;;;;9.03;8.13;;;;;;;18.00;100.00;100759.81;5132596;27;20216;-74
2021/09/27 03:32:51;;;;;;;9.33;8.53;;;;;;;17.93;100.00;100731.97;5132541;27;20219;-74
2021/09/27 03:35:23;;;;;;;10.00;9.10;;;;;;;17.90;100.00;100743.72;5132377;27;20216;-74
2021/09/27 03:37:58;;;;;;;8.67;7.83;;;;;;;17.80;100.00;100737.56;5114155;27;20176;-74
2021/09/27 03:41:04;;;;;;;9.37;8.47;;;;;;;17.69;100.00;100746.72;5114129;27;20222;-73
2021/09/27 03:43:57;;;;;;;8.83;8.07;;;;;;;17.72;100.00;100749.56;5094600;27;20724;-74
2021/09/27 03:46:28;;;;;;;9.07;8.27;;;;;;;17.73;100.00;100737.38;5132656;27;20600;-74
2021/09/27 03:48:59;;;;;;;8.90;8.20;;;;;;;17.71;100.00;100728.63;5113916;27;20176;-74
2021/09/27 03:51:50;;;;;;;10.57;9.47;;;;;;;17.70;100.00;100737.28;5132398;27;20161;-74
2021/09/27 03:54:26;;;;;;;8.83;8.03;;;;;;;17.61;100.00;100740.13;5131902;27;20177;-75
2021/09/27 03:56:59;;;;;;;9.27;8.40;;;;;;;17.54;100.00;100732.47;5132213;27;20161;-74
2021/09/27 03:59:44;;;;;;;9.50;8.60;;;;;;;17.46;100.00;100736.16;5132194;27;20208;-74
2021/09/27 04:02:17;;;;;;;8.60;7.93;;;;;;;17.41;100.00;100732.84;5132217;27;20189;-74
2021/09/27 04:05:09;;;;;;;9.40;8.60;;;;;;;17.37;100.00;100743.00;5131830;27;20644;-74
2021/09/27 04:07:56;;;;;;;9.13;8.43;;;;;;;17.36;100.00;100752.41;5132077;27;20521;-74
2021/09/27 04:10:43;;;;;;;8.40;7.60;;;;;;;17.37;100.00;100730.00;5131895;27;20228;-74
2021/09/27 04:13:44;;;;;;;9.30;8.43;;;;;;;17.43;100.00;100736.06;5131832;27;20180;-75
2021/09/27 04:16:26;;;;;;;9.00;8.23;;;;;;;17.46;100.00;100729.84;5132004;27;20167;-74
2021/09/27 04:19:07;;;;;;;9.03;8.23;;;;;;;17.50;100.00;100750.06;5132017;27;20172;-74
2021/09/27 04:21:50;;;;;;;9.40;8.50;;;;;;;17.45;100.00;100750.34;5131842;27;20243;-74
2021/09/27 04:24:44;;;;;;;8.87;8.17;;;;;;;17.47;100.00;100742.50;5131678;27;20166;-74
2021/09/27 04:27:24;;;;;;;9.10;8.30;;;;;;;17.55;100.00;100756.19;5131421;27;20198;-74
2021/09/27 04:30:24;;;;;;;9.10;8.33;;;;;;;17.57;100.00;100738.44;5131685;27;20204;-74
2021/09/27 04:32:58;;;;;;;9.20;8.40;;;;;;;17.51;100.00;100751.72;5123841;27;20189;-75
2021/09/27 04:35:44;;;;;;;9.00;8.33;;;;;;;17.57;100.00;100755.03;5131559;27;20178;-74
2021/09/27 04:38:11;;;;;;;9.17;7.63;;;;;;;17.55;100.00;100752.63;5131843;27;20176;-75
2021/09/27 04:40:37;;;;;;;9.90;9.00;;;;;;;17.50;100.00;100755.59;5131789;27;20169;-74
2021/09/27 04:43:20;;;;;;;9.47;8.37;;;;;;;17.37;100.00;100763.16;5131626;28;20161;-75
2021/09/27 04:46:03;;;;;;;8.77;7.90;;;;;;;17.42;100.00;100759.31;5131741;28;20221;-75
2021/09/27 04:48:56;;;;;;;8.73;8.03;;;;;;;17.51;100.00;100757.25;5136790;28;20164;-75
2021/09/27 04:51:54;;;;;;;8.57;7.80;;;;;;;17.46;100.00;100744.47;5115325;28;20522;-74
2021/09/27 04:54:57;;;;;;;8.37;7.57;;;;;;;17.57;100.00;100753.06;5132225;28;20172;-74
2021/09/27 04:57:28;;;;;;;10.07;7.10;;;;;;;17.55;100.00;100758.94;5132135;28;20168;-74
2021/09/27 05:00:07;;;;;;;8.37;7.47;;;;;;;17.55;100.00;100763.66;5131998;28;20598;-74
2021/09/27 05:02:51;;;;;;;7.70;7.17;;;;;;;17.48;100.00;100772.53;5131299;28;20180;-73
2021/09/27 05:05:58;;;;;;;7.73;7.10;;;;;;;17.49;100.00;100759.53;5131541;28;20275;-74
2021/09/27 05:08:38;;;;;;;7.63;6.93;;;;;;;17.46;100.00;100763.78;5112160;28;20613;-74
2021/09/27 05:11:40;;;;;;;8.27;7.47;;;;;;;17.40;100.00;100758.88;5131193;28;20200;-74
2021/09/27 05:14:27;;;;;;;8.57;7.77;;;;;;;17.29;100.00;100755.78;5130977;28;20168;-74
2021/09/27 05:17:20;;;;;;;8.37;7.63;;;;;;;17.20;100.00;100750.38;5131409;28;20275;-74
2021/09/27 05:20:04;;;;;;;7.17;6.67;;;;;;;17.07;100.00;100746.06;5131176;28;20181;-76
2021/09/27 05:22:54;;;;;;;8.83;7.50;;;;;;;16.96;100.00;100755.97;5131066;28;20176;-73
2021/09/27 05:25:57;;;;;;;8.20;7.53;;;;;;;16.79;100.00;100745.19;5131032;28;20179;-73
2021/09/27 05:28:46;;;;;;;8.30;7.60;;;;;;;16.66;100.00;100745.16;5120683;27;20180;-73
2021/09/27 05:31:36;;;;;;;8.80;8.07;;;;;;;16.56;100.00;100742.03;5112543;28;20605;-73
2021/09/27 05:34:20;;;;;;;8.40;7.70;;;;;;;16.51;100.00;100737.56;5130498;28;20255;-73
2021/09/27 05:37:00;;;;;;;9.13;8.37;;;;;;;16.44;100.00;100728.22;5130740;27;20789;-73
2021/09/27 05:39:49;;;;;;;8.50;7.63;;;;;;;16.39;100.00;100733.97;5132612;27;20179;-73
2021/09/27 05:42:39;;;;;;;8.90;8.00;;;;;;;16.33;100.00;100733.38;5135038;27;20549;-73
2021/09/27 05:45:24;;;;;;;10.83;9.60;;;;;;;16.31;100.00;100732.94;5134333;27;20176;-73
2021/09/27 05:47:54;;;;;;;9.10;8.33;;;;;;;16.26;100.00;100756.03;5134681;27;20843;-72
2021/09/27 05:50:32;;;;;;;10.20;9.40;;;;;;;16.24;100.00;100735.47;5134508;27;20204;-72
2021/09/27 05:53:11;;;;;;;9.27;7.90;;;;;;;16.22;100.00;100740.50;5134579;27;20172;-74
2021/09/27 05:55:41;;;;;;;14.73;10.20;;;;;;;16.23;100.00;100731.09;5115624;27;20176;-74
2021/09/27 05:58:27;;;;;;;10.00;8.97;;;;;;;16.23;100.00;100742.13;5134596;27;20228;-74
2021/09/27 06:01:28;;;;;;;10.37;9.40;;;;;;;16.20;100.00;100738.09;5134364;27;20188;-73
2021/09/27 06:04:09;;;;;;;10.97;9.97;;;;;;;16.20;100.00;100740.03;5134020;27;20364;-74
2021/09/27 06:06:42;;;;;;;10.50;9.03;;;;;;;16.18;100.00;100743.13;5134274;27;20538;-74
2021/09/27 06:09:26;;;;;;;10.80;9.80;;;;;;;16.20;100.00;100753.81;5134293;27;20173;-74
2021/09/27 06:11:54;;;;;;;10.40;9.40;;;;;;;16.22;100.00;100759.81;5134147;27;20176;-74
2021/09/27 06:14:20;;;;;;;10.47;9.47;;;;;;;16.24;100.00;100754.75;5133718;27;20666;-74
2021/09/27 06:16:58;;;;;;;10.40;9.47;;;;;;;16.24;100.00;100763.03;5134020;27;20176;-74
2021/09/27 06:19:52;;;;;;;10.80;9.80;;;;;;;16.24;100.00;100763.03;5134046;27;20247;-75
2021/09/27 06:22:41;;;;;;;10.83;9.70;;;;;;;16.21;100.00;100766.47;5130203;27;20193;-73
2021/09/27 06:25:16;;;;;;;11.33;10.23;;;;;;;16.18;100.00;100767.13;5133846;27;20177;-73
2021/09/27 06:27:48;;;;;;;11.80;10.80;;;;;;;16.16;100.00;100770.22;5133815;27;20206;-73
2021/09/27 06:30:26;;;;;;;10.30;9.33;;;;;;;16.14;100.00;100775.28;5133920;27;20542;-72
2021/09/27 06:33:27;;;;;;;11.90;10.87;;;;;;;16.17;100.00;100782.06;5133948;27;20172;-72
2021/09/27 06:35:54;;;;;;;11.77;10.73;;;;;;;16.20;100.00;100786.88;5013429;28;20274;-73
2021/09/27 06:38:29;;;;;;;11.53;10.43;;;;;;;16.20;100.00;100784.13;5112897;27;20647;-73
2021/09/27 06:40:57;;;;;;;11.73;10.70;;;;;;;16.18;100.00;100784.47;5130165;27;20185;-74
2021/09/27 06:43:24;;;;;;;13.57;11.50;;;;;;;16.21;100.00;100783.00;5132128;27;20271;-75
2021/09/27 06:45:50;;;;;;;12.03;11.03;;;;;;;16.24;100.00;100796.13;5128826;27;20173;-74
2021/09/27 06:48:16;;;;;;;12.30;11.20;;;;;;;16.27;100.00;100807.25;5126794;27;20184;-75
2021/09/27 06:50:42;;;;;;;13.03;11.93;;;;;;;16.35;100.00;100811.09;5132639;27;20200;-75
2021/09/27 06:53:08;;;;;;;13.13;11.77;;;;;;;16.34;100.00;100812.19;5134023;27;20173;-74
2021/09/27 06:55:33;;;;;;;12.70;11.50;;;;;;;16.33;100.00;100808.63;5133431;27;20229;-75
2021/09/27 06:57:58;;;;;;;12.13;11.00;;;;;;;16.33;100.00;100805.88;5133598;27;20164;-82
2021/09/27 07:00:24;;;;;;;11.57;10.50;;;;;;;16.40;100.00;100801.78;5133369;27;20259;-73
2021/09/27 07:02:49;;;;;;;12.83;11.63;;;;;;;16.45;100.00;100788.56;5133359;27;20225;-74
2021/09/27 07:05:15;;;;;;;13.03;11.53;;;;;;;16.52;100.00;100799.03;5133014;27;20271;-74
2021/09/27 07:07:41;;;;;;;13.40;12.23;;;;;;;16.59;100.00;100791.00;5133354;27;20181;-73
2021/09/27 07:10:09;;;;;;;12.97;11.70;;;;;;;16.67;100.00;100809.44;5133321;27;20200;-73
2021/09/27 07:12:35;;;;;;;16.17;12.37;;;;;;;16.80;100.00;100807.50;5133053;27;20204;-73
2021/09/27 07:15:00;;;;;;;13.27;12.03;;;;;;;16.83;100.00;100810.38;5132853;27;20173;-73
2021/09/27 07:17:25;;;;;;;14.03;12.73;;;;;;;16.89;100.00;100808.97;5130357;27;20207;-73
2021/09/27 07:19:51;;;;;;;13.53;12.23;;;;;;;16.96;100.00;100813.94;5129714;27;20176;-73
2021/09/27 07:22:16;;;;;;;13.07;11.87;;;;;;;17.08;100.00;100819.47;5124360;27;20230;-73
2021/09/27 07:24:42;;;;;;;13.07;11.87;;;;;;;17.13;100.00;100821.97;5128144;27;20184;-73
2021/09/27 07:27:07;;;;;;;11.93;10.83;;;;;;;17.11;100.00;100820.72;5133098;27;20217;-73
2021/09/27 07:29:33;;;;;;;11.30;10.00;;;;;;;17.09;100.00;100818.31;5132776;27;20204;-72
2021/09/27 07:31:58;;;;;;;12.80;11.70;;;;;;;17.11;100.00;100817.97;5132725;27;20179;-72
2021/09/27 07:34:23;;;;;;;11.67;10.57;;;;;;;17.16;100.00;100815.75;5132834;27;20178;-73
2021/09/27 07:36:49;;;;;;;13.17;11.97;;;;;;;17.16;100.00;100821.28;5132643;27;20207;-73
2021/09/27 07:39:15;;;;;;;14.07;12.63;;;;;;;17.19;100.00;100812.28;5132712;27;20248;-72
2021/09/27 07:41:40;;;;;;;12.80;11.60;;;;;;;17.23;100.00;100810.47;5132720;27;20180;-72
2021/09/27 07:44:07;;;;;;;13.30;12.20;;;;;;;17.28;100.00;100809.41;5132733;27;20176;-73
2021/09/27 07:46:33;;;;;;;12.67;11.43;;;;;;;17.35;100.00;100815.16;5132812;27;20384;-72
2021/09/27 07:48:59;;;;;;;13.47;11.93;;;;;;;17.33;100.00;100811.94;5132299;27;20259;-73
2021/09/27 07:51:25;;;;;;;12.47;11.37;;;;;;;17.38;100.00;100816.44;5132673;27;20255;-73
2021/09/27 07:53:51;;;;;;;10.90;9.80;;;;;;;17.35;100.00;100806.84;5132254;27;20637;-72
2021/09/27 07:56:17;;;;;;;12.77;11.50;;;;;;;17.40;100.00;100814.94;5132512;27;20202;-72
2021/09/27 07:58:43;;;;;;;12.43;11.37;;;;;;;17.50;100.00;100808.09;5132379;27;20255;-73
2021/09/27 08:01:08;;;;;;;12.53;11.23;;;;;;;17.53;100.00;100810.97;5132407;27;20584;-72
2021/09/27 08:03:34;;;;;;;13.57;12.43;;;;;;;17.59;100.00;100802.44;5132088;27;20175;-73
2021/09/27 08:05:59;;;;;;;12.17;10.90;;;;;;;17.71;100.00;100800.47;5132022;27;20187;-72
2021/09/27 08:08:25;;;;;;;12.63;11.43;;;;;;;17.74;100.00;100808.06;5132237;27;20266;-72
2021/09/27 08:10:50;;;;;;;10.07;8.93;;;;;;;17.75;100.00;100809.66;5131911;27;20748;-72
2021/09/27 08:13:16;;;;;;;12.53;11.33;;;;;;;17.77;100.00;100801.81;5131988;27;20178;-72
2021/09/27 08:15:45;;;;;;;12.90;11.83;;;;;;;17.83;100.00;100810.69;5131756;27;20165;-72
2021/09/27 08:18:12;;;;;;;11.57;10.37;;;;;;;17.85;100.00;100802.84;5132081;27;20169;-72
2021/09/27 08:20:50;;;;;;;12.20;11.20;;;;;;;17.88;100.00;100802.13;5132345;27;20214;-72
2021/09/27 08:23:16;;;;;;;10.40;9.50;;;;;;;18.08;100.00;100797.53;5132031;27;20168;-72
2021/09/27 08:25:42;;;;;;;12.93;11.13;;;;;;;18.10;100.00;100798.03;5131435;27;20187;-72
2021/09/27 08:28:10;;;;;;;11.27;10.20;;;;;;;18.19;100.00;100792.31;5131807;27;20635;-72
2021/09/27 08:30:41;;;;;;;11.37;10.40;;;;;;;18.29;100.00;100794.56;5131728;27;20421;-72
2021/09/27 08:33:07;;;;;;;12.73;9.80;;;;;;;18.34;100.00;100797.88;5113534;27;20177;-73
2021/09/27 08:35:33;;;;;;;10.70;9.87;;;;;;;18.33;100.00;100785.19;5131586;27;20170;-73
2021/09/27 08:38:01;;;;;;;12.50;10.10;;;;;;;18.37;100.00;100790.81;5131658;27;20175;-73
2021/09/27 08:40:32;;;;;;;10.77;9.73;;;;;;;18.46;100.00;100782.34;5131673;27;20200;-73
2021/09/27 08:43:02;;;;;;;11.30;10.03;;;;;;;18.44;100.00;100780.75;5113486;28;20174;-72
2021/09/27 08:45:28;;;;;;;7.90;7.30;;;;;;;18.46;100.00;100776.81;5131629;28;20199;-72
2021/09/27 08:48:31;;;;;;;10.27;9.37;;;;;;;18.43;100.00;100781.91;5113242;28;20250;-72
2021/09/27 08:50:57;;;;;;;9.83;8.90;;;;;;;18.51;100.00;100788.41;5131383;28;20214;-73
2021/09/27 08:53:27;;;;;;;8.87;8.17;;;;;;;18.52;100.00;100787.28;5131340;28;20173;-72
2021/09/27 08:56:04;;;;;;;11.00;9.90;;;;;;;18.51;100.00;100787.59;5128128;28;20636;-72
2021/09/27 08:58:48;;;;;;;10.97;9.87;;;;;;;18.53;100.00;100793.63;5129717;28;20172;-73
2021/09/27 09:01:18;;;;;;;10.60;9.70;;;;;;;18.59;100.00;100789.41;5123224;28;20173;-72
2021/09/27 09:03:55;;;;;;;10.17;9.17;;;;;;;18.66;100.00;100795.13;5130782;28;20503;-72
2021/09/27 09:06:45;;;;;;;10.03;9.10;;;;;;;18.71;100.00;100801.22;5112748;28;20546;-72
2021/09/27 09:09:16;;;;;;;8.67;7.97;;;;;;;18.80;100.00;100797.47;5112799;28;20623;-72
2021/09/27 09:12:01;;;;;;;9.40;8.47;;;;;;;18.82;100.00;100793.19;5131956;28;20176;-72
2021/09/27 09:14:48;;;;;;;9.23;8.43;;;;;;;18.95;100.00;100800.25;5132927;27;20164;-72
2021/09/27 09:17:19;;;;;;;11.97;9.90;;;;;;;19.14;100.00;100796.72;5135443;27;20525;-72
2021/09/27 09:19:46;;;;;;;8.83;8.13;;;;;;;19.13;100.00;100803.41;5116730;27;20172;-72
2021/09/27 09:22:26;;;;;;;8.83;8.00;;;;;;;19.02;100.00;100792.09;5135308;27;20677;-72
2021/09/27 09:24:52;;;;;;;9.23;8.40;;;;;;;19.02;100.00;100794.84;5135114;27;20165;-73
2021/09/27 09:27:18;;;;;;;9.63;8.73;;;;;;;18.97;100.00;100792.38;5135449;27;20169;-72
2021/09/27 09:29:45;;;;;;;8.80;8.00;;;;;;;18.96;100.00;100795.50;5135053;27;20203;-73
2021/09/27 09:32:18;;;;;;;7.53;6.83;;;;;;;19.01;100.00;100790.47;5134946;27;20165;-73
2021/09/27 09:34:45;;;;;;;7.60;7.00;;;;;;;18.96;100.00;100804.63;5135032;27;20208;-73
2021/09/27 09:37:35;;;;;;;7.80;7.00;;;;;;;18.95;100.00;100800.25;5135250;27;20196;-72
2021/09/27 09:40:06;;;;;;;9.73;8.83;;;;;;;19.03;100.00;100802.00;5135033;27;20669;-72
2021/09/27 09:42:34;;;;;;;9.20;8.40;;;;;;;19.11;100.00;100791.91;5134827;27;20179;-73
2021/09/27 09:45:32;;;;;;;8.77;7.97;;;;;;;19.25;100.00;100788.66;5134551;27;20174;-73
2021/09/27 09:48:14;;;;;;;8.90;8.20;;;;;;;19.44;100.00;100794.22;5109455;27;20287;-73
2021/09/27 09:50:41;;;;;;;6.47;5.93;;;;;;;19.49;100.00;100784.81;5131819;27;20203;-73
2021/09/27 09:53:32;;;;;;;5.87;5.47;;;;;;;19.42;100.00;100777.16;5133325;27;20631;-73
2021/09/27 09:56:04;;;;;;;9.13;8.00;;;;;;;19.44;100.00;100777.59;5131644;27;20176;-74
2021/09/27 09:58:35;;;;;;;8.77;8.07;;;;;;;19.50;100.00;100770.59;5134677;27;20164;-73
2021/09/27 10:01:06;;;;;;;6.70;6.20;;;;;;;19.59;100.00;100762.91;5134427;27;20591;-73
2021/09/27 10:03:35;;;;;;;4.03;3.63;;;;;;;19.59;100.00;100778.72;5134238;27;20169;-73
2021/09/27 10:06:14;;;;;;;7.83;6.80;;;;;;;19.72;100.00;100787.72;5134338;27;20233;-73
2021/09/27 10:08:47;;;;;;;5.90;5.40;;;;;;;19.73;100.00;100789.31;5134451;27;20164;-73
2021/09/27 10:11:28;;;;;;;6.13;5.53;;;;;;;19.57;100.00;100792.94;5134336;27;20438;-72
2021/09/27 10:13:55;;;;;;;6.60;6.00;;;;;;;19.51;100.00;100783.28;5134057;27;20204;-73
2021/09/27 10:16:48;;;;;;;8.13;6.30;;;;;;;19.52;100.00;100792.38;5134234;27;20426;-72
2021/09/27 10:19:22;;;;;;;3.87;3.53;;;;;;;19.51;100.00;100799.91;5130188;27;20185;-74
2021/09/27 10:22:18;;;;;;;9.23;5.53;;;;;;;19.54;100.00;100990.50;5134219;27;20201;-73
2021/09/27 10:24:50;;;;;;;5.97;5.47;;;;;;;19.56;100.00;100735.09;5113163;27;20184;-73
2021/09/27 10:27:37;;;;;;;5.03;4.63;;;;;;;19.61;100.00;100738.38;5134018;27;20184;-73
2021/09/27 10:30:10;;;;;;;4.40;4.10;;;;;;;19.59;100.00;100740.72;5115580;27;20204;-74
2021/09/27 10:32:43;;;;;;;5.67;5.27;;;;;;;19.60;100.00;100733.22;5133849;27;20362;-73
2021/09/27 10:35:22;;;;;;;4.60;4.20;;;;;;;19.65;98.47;100744.00;5133755;27;20176;-73
2021/09/27 10:37:47;;;;;;;2.63;2.40;;;;;;;19.81;100.00;100760.53;5133971;27;20500;-73
2021/09/27 10:40:18;;;;;;;5.00;4.60;;;;;;;19.63;98.48;100751.88;5133895;27;20175;-73
2021/09/27 10:42:47;;;;;;;4.10;3.80;;;;;;;19.71;100.00;100753.63;5133887;27;20169;-74
2021/09/27 10:45:15;;;;;;;4.23;3.87;;;;;;;19.76;98.80;100752.53;5133469;27;20173;-73
2021/09/27 10:47:46;;;;;;;5.53;5.00;;;;;;;19.84;98.88;100740.41;5127914;27;20177;-73
2021/09/27 10:50:14;;;;;;;3.90;3.60;;;;;;;19.96;96.48;100736.66;5130972;27;20302;-73
2021/09/27 10:52:45;;;;;;;2.50;2.17;;;;;;;19.93;93.71;100735.44;5133421;27;20255;-72
2021/09/27 10:55:11;;;;;;;3.03;2.80;;;;;;;20.04;96.59;100730.88;5133031;27;20180;-74
2021/09/27 10:57:52;;;;;;;4.30;4.00;;;;;;;20.01;93.53;100736.38;5133446;27;20169;-73
2021/09/27 11:00:46;;;;;;;3.43;2.33;;;;;;;20.07;92.02;100737.66;5137669;27;20177;-73
2021/09/27 11:03:21;;;;;;;3.40;3.10;;;;;;;20.05;93.00;100735.25;5141440;27;20254;-74
2021/09/27 11:06:18;;;;;;;4.57;4.20;;;;;;;19.95;91.89;100737.81;5132381;27;20643;-74
2021/09/27 11:09:18;;;;;;;3.23;2.97;;;;;;;20.20;91.00;100731.56;5133577;27;20251;-74
2021/09/27 11:11:46;;;;;;;4.37;3.10;;;;;;;20.32;91.64;100746.44;5095613;27;20677;-74
2021/09/27 11:14:27;;;;;;;4.37;4.07;;;;;;;20.34;91.19;100736.56;5118521;27;20684;-73
2021/09/27 11:17:07;;;;;;;3.53;3.27;;;;;;;20.11;89.38;100733.00;5132981;27;20177;-74
2021/09/27 11:19:33;;;;;;;3.57;3.37;;;;;;;19.96;90.36;100740.22;5132994;27;20203;-73
2021/09/27 11:22:37;;;;;;;3.37;3.07;;;;;;;19.91;90.19;100746.09;5132920;27;20249;-74
2021/09/27 11:25:11;;;;;;;3.27;3.07;;;;;;;19.83;91.69;100730.50;5133027;27;20187;-74
2021/09/27 11:27:38;;;;;;;2.53;2.33;;;;;;;19.62;91.31;100725.31;5132732;27;20182;-75
2021/09/27 11:30:22;;;;;;;6.07;3.70;;;;;;;19.48;92.77;100727.78;5132625;27;20208;-74
2021/09/27 11:33:10;;;;;;;4.43;4.13;;;;;;;19.45;93.62;100720.19;5132580;27;20184;-74
2021/09/27 11:35:44;;;;;;;2.90;2.70;;;;;;;19.51;93.53;100722.28;5130422;27;20212;-73
2021/09/27 11:38:28;;;;;;;4.17;3.87;;;;;;;19.68;95.51;100725.84;5131798;27;20187;-73
2021/09/27 11:41:02;;;;;;;3.67;3.33;;;;;;;19.84;92.40;100712.69;5131283;27;20183;-74
2021/09/27 11:43:36;;;;;;;3.30;2.97;;;;;;;19.96;93.81;100720.81;5114549;27;20242;-75
2021/09/27 11:46:05;;;;;;;3.77;3.50;;;;;;;19.91;92.74;100708.06;5132634;27;20183;-74
2021/09/27 11:49:02;;;;;;;4.17;3.83;;;;;;;19.91;91.70;100710.84;5132373;27;20251;-75
2021/09/27 11:51:38;;;;;;;4.17;3.47;;;;;;;19.90;92.04;100706.47;5132455;27;20204;-74